sensor_id;sensor_type;location;lat;lon;timestamp;P1;durP1;ratioP1;P2;durP2;ratioP2
14074;SDS011;12831;52.392;13.066;2024-03-22T00:01:49;17.50;;;12.20;;
14074;SDS011;12831;52.392;13.066;2024-03-22T00:04:16;21.30;;;13.07;;
14074;SDS011;12831;52.392;13.066;2024-03-22T00:06:42;17.45;;;11.07;;
14074;SDS011;12831;52.392;13.066;2024-03-22T00:09:08;17.63;;;11.45;;
14074;SDS011;12831;52.392;13.066;2024-03-22T00:11:34;14.95;;;11.48;;
14074;SDS011;12831;52.392;13.066;2024-03-22T00:14:01;21.75;;;12.95;;
14074;SDS011;12831;52.392;13.066;2024-03-22T00:16:27;17.67;;;11.50;;
14074;SDS011;12831;52.392;13.066;2024-03-22T00:18:53;16.35;;;11.27;;
14074;SDS011;12831;52.392;13.066;2024-03-22T00:21:18;19.42;;;12.57;;
14074;SDS011;12831;52.392;13.066;2024-03-22T00:23:47;19.55;;;12.57;;
14074;SDS011;12831;52.392;13.066;2024-03-22T00:26:13;17.60;;;11.82;;
14074;SDS011;12831;52.392;13.066;2024-03-22T00:28:39;19.83;;;11.82;;
14074;SDS011;12831;52.392;13.066;2024-03-22T00:31:05;20.88;;;12.98;;
14074;SDS011;12831;52.392;13.066;2024-03-22T00:33:31;18.65;;;11.90;;
14074;SDS011;12831;52.392;13.066;2024-03-22T00:35:57;19.42;;;13.13;;
14074;SDS011;12831;52.392;13.066;2024-03-22T00:38:23;18.02;;;12.02;;
14074;SDS011;12831;52.392;13.066;2024-03-22T00:40:49;15.65;;;11.13;;
14074;SDS011;12831;52.392;13.066;2024-03-22T00:43:15;23.25;;;12.10;;
14074;SDS011;12831;52.392;13.066;2024-03-22T00:45:41;18.63;;;13.15;;
14074;SDS011;12831;52.392;13.066;2024-03-22T00:48:07;17.20;;;11.05;;
14074;SDS011;12831;52.392;13.066;2024-03-22T00:50:33;16.85;;;11.93;;
14074;SDS011;12831;52.392;13.066;2024-03-22T00:52:59;18.23;;;11.88;;
14074;SDS011;12831;52.392;13.066;2024-03-22T00:55:25;18.13;;;12.25;;
14074;SDS011;12831;52.392;13.066;2024-03-22T00:57:51;16.20;;;10.88;;
14074;SDS011;12831;52.392;13.066;2024-03-22T01:00:17;17.17;;;11.13;;
14074;SDS011;12831;52.392;13.066;2024-03-22T01:02:43;17.17;;;11.00;;
14074;SDS011;12831;52.392;13.066;2024-03-22T01:05:09;18.83;;;12.93;;
14074;SDS011;12831;52.392;13.066;2024-03-22T01:07:35;19.02;;;12.48;;
14074;SDS011;12831;52.392;13.066;2024-03-22T01:10:01;19.55;;;11.27;;
14074;SDS011;12831;52.392;13.066;2024-03-22T01:12:27;18.67;;;11.80;;
14074;SDS011;12831;52.392;13.066;2024-03-22T01:14:53;20.67;;;11.57;;
14074;SDS011;12831;52.392;13.066;2024-03-22T01:17:19;20.17;;;12.77;;
14074;SDS011;12831;52.392;13.066;2024-03-22T01:19:45;19.15;;;11.95;;
14074;SDS011;12831;52.392;13.066;2024-03-22T01:22:11;18.70;;;11.70;;
14074;SDS011;12831;52.392;13.066;2024-03-22T01:24:37;17.63;;;11.27;;
14074;SDS011;12831;52.392;13.066;2024-03-22T01:27:03;20.13;;;12.25;;
14074;SDS011;12831;52.392;13.066;2024-03-22T01:29:29;17.90;;;11.75;;
14074;SDS011;12831;52.392;13.066;2024-03-22T01:32:00;18.73;;;12.30;;
14074;SDS011;12831;52.392;13.066;2024-03-22T01:34:26;19.85;;;12.40;;
14074;SDS011;12831;52.392;13.066;2024-03-22T01:36:51;17.33;;;11.00;;
14074;SDS011;12831;52.392;13.066;2024-03-22T01:39:20;20.20;;;12.48;;
14074;SDS011;12831;52.392;13.066;2024-03-22T01:41:50;19.65;;;11.98;;
14074;SDS011;12831;52.392;13.066;2024-03-22T01:44:16;19.63;;;11.02;;
14074;SDS011;12831;52.392;13.066;2024-03-22T01:46:42;19.05;;;11.98;;
14074;SDS011;12831;52.392;13.066;2024-03-22T01:49:10;20.42;;;11.65;;
14074;SDS011;12831;52.392;13.066;2024-03-22T01:51:37;18.65;;;11.32;;
14074;SDS011;12831;52.392;13.066;2024-03-22T01:54:03;18.50;;;11.65;;
14074;SDS011;12831;52.392;13.066;2024-03-22T01:56:29;21.23;;;11.70;;
14074;SDS011;12831;52.392;13.066;2024-03-22T01:58:55;17.13;;;10.90;;
14074;SDS011;12831;52.392;13.066;2024-03-22T02:01:22;14.25;;;9.65;;
14074;SDS011;12831;52.392;13.066;2024-03-22T02:03:48;16.77;;;11.27;;
14074;SDS011;12831;52.392;13.066;2024-03-22T02:06:13;17.10;;;11.98;;
14074;SDS011;12831;52.392;13.066;2024-03-22T02:08:40;17.42;;;10.73;;
14074;SDS011;12831;52.392;13.066;2024-03-22T02:11:07;17.25;;;11.20;;
14074;SDS011;12831;52.392;13.066;2024-03-22T02:13:34;21.15;;;11.88;;
14074;SDS011;12831;52.392;13.066;2024-03-22T02:16:02;16.88;;;11.30;;
14074;SDS011;12831;52.392;13.066;2024-03-22T02:18:28;19.42;;;10.82;;
14074;SDS011;12831;52.392;13.066;2024-03-22T02:20:54;17.17;;;10.68;;
14074;SDS011;12831;52.392;13.066;2024-03-22T02:25:55;16.15;;;10.55;;
14074;SDS011;12831;52.392;13.066;2024-03-22T02:28:21;14.43;;;10.90;;
14074;SDS011;12831;52.392;13.066;2024-03-22T02:30:46;17.83;;;10.63;;
14074;SDS011;12831;52.392;13.066;2024-03-22T02:33:12;15.55;;;9.88;;
14074;SDS011;12831;52.392;13.066;2024-03-22T02:35:38;15.77;;;10.45;;
14074;SDS011;12831;52.392;13.066;2024-03-22T02:38:04;15.50;;;10.55;;
14074;SDS011;12831;52.392;13.066;2024-03-22T02:40:30;17.98;;;11.18;;
14074;SDS011;12831;52.392;13.066;2024-03-22T02:42:56;17.85;;;10.65;;
14074;SDS011;12831;52.392;13.066;2024-03-22T02:45:22;18.85;;;10.82;;
14074;SDS011;12831;52.392;13.066;2024-03-22T02:47:48;14.93;;;10.15;;
14074;SDS011;12831;52.392;13.066;2024-03-22T02:50:14;15.13;;;9.43;;
14074;SDS011;12831;52.392;13.066;2024-03-22T02:52:39;16.73;;;9.93;;
14074;SDS011;12831;52.392;13.066;2024-03-22T02:55:05;15.43;;;10.02;;
14074;SDS011;12831;52.392;13.066;2024-03-22T02:57:31;15.45;;;10.27;;
14074;SDS011;12831;52.392;13.066;2024-03-22T02:59:59;14.60;;;10.35;;
14074;SDS011;12831;52.392;13.066;2024-03-22T03:02:25;16.77;;;10.20;;
14074;SDS011;12831;52.392;13.066;2024-03-22T03:04:51;15.25;;;9.32;;
14074;SDS011;12831;52.392;13.066;2024-03-22T03:07:17;16.13;;;9.82;;
14074;SDS011;12831;52.392;13.066;2024-03-22T03:09:43;14.50;;;8.93;;
14074;SDS011;12831;52.392;13.066;2024-03-22T03:12:08;16.75;;;10.50;;
14074;SDS011;12831;52.392;13.066;2024-03-22T03:14:38;15.02;;;10.05;;
14074;SDS011;12831;52.392;13.066;2024-03-22T03:17:04;16.85;;;8.82;;
14074;SDS011;12831;52.392;13.066;2024-03-22T03:19:29;19.77;;;11.07;;
14074;SDS011;12831;52.392;13.066;2024-03-22T03:21:55;15.98;;;9.90;;
14074;SDS011;12831;52.392;13.066;2024-03-22T03:24:21;14.50;;;9.02;;
14074;SDS011;12831;52.392;13.066;2024-03-22T03:26:47;16.58;;;10.05;;
14074;SDS011;12831;52.392;13.066;2024-03-22T03:29:13;15.77;;;10.95;;
14074;SDS011;12831;52.392;13.066;2024-03-22T03:31:39;15.38;;;9.75;;
14074;SDS011;12831;52.392;13.066;2024-03-22T03:34:04;14.48;;;8.98;;
14074;SDS011;12831;52.392;13.066;2024-03-22T03:36:30;15.43;;;9.40;;
14074;SDS011;12831;52.392;13.066;2024-03-22T03:38:56;17.98;;;9.70;;
14074;SDS011;12831;52.392;13.066;2024-03-22T03:41:22;16.33;;;10.43;;
14074;SDS011;12831;52.392;13.066;2024-03-22T03:43:48;17.05;;;9.60;;
14074;SDS011;12831;52.392;13.066;2024-03-22T03:46:14;20.98;;;11.40;;
14074;SDS011;12831;52.392;13.066;2024-03-22T03:48:39;15.38;;;9.50;;
14074;SDS011;12831;52.392;13.066;2024-03-22T03:51:05;17.65;;;9.60;;
14074;SDS011;12831;52.392;13.066;2024-03-22T03:53:31;15.85;;;9.98;;
14074;SDS011;12831;52.392;13.066;2024-03-22T03:55:57;14.52;;;8.43;;
14074;SDS011;12831;52.392;13.066;2024-03-22T03:58:23;15.85;;;9.45;;
14074;SDS011;12831;52.392;13.066;2024-03-22T04:00:49;14.40;;;9.20;;
14074;SDS011;12831;52.392;13.066;2024-03-22T04:03:15;15.98;;;9.05;;
14074;SDS011;12831;52.392;13.066;2024-03-22T04:05:41;15.25;;;9.23;;
14074;SDS011;12831;52.392;13.066;2024-03-22T04:08:07;15.55;;;9.23;;
14074;SDS011;12831;52.392;13.066;2024-03-22T04:10:33;15.50;;;9.30;;
14074;SDS011;12831;52.392;13.066;2024-03-22T04:12:59;16.17;;;10.48;;
14074;SDS011;12831;52.392;13.066;2024-03-22T04:15:24;13.25;;;8.45;;
14074;SDS011;12831;52.392;13.066;2024-03-22T04:17:50;14.80;;;8.70;;
14074;SDS011;12831;52.392;13.066;2024-03-22T04:20:16;15.30;;;8.73;;
14074;SDS011;12831;52.392;13.066;2024-03-22T04:22:42;11.77;;;7.43;;
14074;SDS011;12831;52.392;13.066;2024-03-22T04:25:08;14.50;;;9.23;;
14074;SDS011;12831;52.392;13.066;2024-03-22T04:27:37;14.90;;;9.93;;
14074;SDS011;12831;52.392;13.066;2024-03-22T04:30:03;12.77;;;8.48;;
14074;SDS011;12831;52.392;13.066;2024-03-22T04:32:29;14.13;;;9.07;;
14074;SDS011;12831;52.392;13.066;2024-03-22T04:34:54;13.23;;;8.43;;
14074;SDS011;12831;52.392;13.066;2024-03-22T04:37:21;13.10;;;8.65;;
14074;SDS011;12831;52.392;13.066;2024-03-22T04:39:47;14.20;;;9.23;;
14074;SDS011;12831;52.392;13.066;2024-03-22T04:42:12;13.93;;;8.75;;
14074;SDS011;12831;52.392;13.066;2024-03-22T04:44:38;14.98;;;9.60;;
14074;SDS011;12831;52.392;13.066;2024-03-22T04:47:04;19.52;;;9.68;;
14074;SDS011;12831;52.392;13.066;2024-03-22T04:49:30;16.73;;;10.27;;
14074;SDS011;12831;52.392;13.066;2024-03-22T04:51:56;13.65;;;9.32;;
14074;SDS011;12831;52.392;13.066;2024-03-22T04:54:25;14.80;;;9.43;;
14074;SDS011;12831;52.392;13.066;2024-03-22T04:56:51;15.80;;;9.38;;
14074;SDS011;12831;52.392;13.066;2024-03-22T04:59:17;14.32;;;8.65;;
14074;SDS011;12831;52.392;13.066;2024-03-22T05:01:43;16.80;;;9.00;;
14074;SDS011;12831;52.392;13.066;2024-03-22T05:04:10;15.23;;;9.07;;
14074;SDS011;12831;52.392;13.066;2024-03-22T05:06:35;14.35;;;9.93;;
14074;SDS011;12831;52.392;13.066;2024-03-22T05:09:01;14.63;;;9.45;;
14074;SDS011;12831;52.392;13.066;2024-03-22T05:11:29;15.73;;;8.98;;
14074;SDS011;12831;52.392;13.066;2024-03-22T05:13:57;16.83;;;9.77;;
14074;SDS011;12831;52.392;13.066;2024-03-22T05:16:22;15.93;;;10.00;;
14074;SDS011;12831;52.392;13.066;2024-03-22T05:18:49;13.13;;;9.10;;
14074;SDS011;12831;52.392;13.066;2024-03-22T05:21:15;13.60;;;9.55;;
14074;SDS011;12831;52.392;13.066;2024-03-22T05:23:41;13.75;;;8.18;;
14074;SDS011;12831;52.392;13.066;2024-03-22T05:26:07;15.07;;;8.88;;
14074;SDS011;12831;52.392;13.066;2024-03-22T05:28:33;17.40;;;9.20;;
14074;SDS011;12831;52.392;13.066;2024-03-22T05:30:59;12.75;;;7.60;;
14074;SDS011;12831;52.392;13.066;2024-03-22T05:33:25;14.95;;;8.57;;
14074;SDS011;12831;52.392;13.066;2024-03-22T05:35:51;14.18;;;9.13;;
14074;SDS011;12831;52.392;13.066;2024-03-22T05:38:17;16.38;;;9.88;;
14074;SDS011;12831;52.392;13.066;2024-03-22T05:40:43;17.42;;;10.10;;
14074;SDS011;12831;52.392;13.066;2024-03-22T05:43:12;15.13;;;9.30;;
14074;SDS011;12831;52.392;13.066;2024-03-22T05:45:38;14.73;;;9.93;;
14074;SDS011;12831;52.392;13.066;2024-03-22T05:48:04;18.17;;;10.57;;
14074;SDS011;12831;52.392;13.066;2024-03-22T05:50:30;13.32;;;8.65;;
14074;SDS011;12831;52.392;13.066;2024-03-22T05:55:45;13.43;;;9.40;;
14074;SDS011;12831;52.392;13.066;2024-03-22T05:58:11;14.93;;;8.32;;
14074;SDS011;12831;52.392;13.066;2024-03-22T06:00:37;12.60;;;8.38;;
14074;SDS011;12831;52.392;13.066;2024-03-22T06:03:05;15.43;;;9.20;;
14074;SDS011;12831;52.392;13.066;2024-03-22T06:05:33;15.55;;;9.13;;
14074;SDS011;12831;52.392;13.066;2024-03-22T06:08:02;13.25;;;7.75;;
14074;SDS011;12831;52.392;13.066;2024-03-22T06:10:30;14.55;;;9.48;;
14074;SDS011;12831;52.392;13.066;2024-03-22T06:12:59;12.10;;;8.40;;
14074;SDS011;12831;52.392;13.066;2024-03-22T06:15:26;12.13;;;8.65;;
14074;SDS011;12831;52.392;13.066;2024-03-22T06:17:53;14.48;;;8.70;;
14074;SDS011;12831;52.392;13.066;2024-03-22T06:20:23;17.77;;;10.40;;
14074;SDS011;12831;52.392;13.066;2024-03-22T06:23:04;18.98;;;12.90;;
14074;SDS011;12831;52.392;13.066;2024-03-22T06:25:31;16.92;;;11.60;;
14074;SDS011;12831;52.392;13.066;2024-03-22T06:27:59;20.13;;;11.77;;
14074;SDS011;12831;52.392;13.066;2024-03-22T06:30:26;20.77;;;12.43;;
14074;SDS011;12831;52.392;13.066;2024-03-22T06:32:54;20.25;;;11.30;;
14074;SDS011;12831;52.392;13.066;2024-03-22T06:35:23;21.05;;;12.13;;
14074;SDS011;12831;52.392;13.066;2024-03-22T06:37:52;19.75;;;11.80;;
14074;SDS011;12831;52.392;13.066;2024-03-22T06:40:19;21.13;;;12.63;;
14074;SDS011;12831;52.392;13.066;2024-03-22T06:42:45;17.42;;;10.75;;
14074;SDS011;12831;52.392;13.066;2024-03-22T06:45:15;16.77;;;11.40;;
14074;SDS011;12831;52.392;13.066;2024-03-22T06:47:42;15.30;;;10.80;;
14074;SDS011;12831;52.392;13.066;2024-03-22T06:50:08;18.50;;;13.20;;
14074;SDS011;12831;52.392;13.066;2024-03-22T06:52:47;22.23;;;11.52;;
14074;SDS011;12831;52.392;13.066;2024-03-22T06:55:14;16.67;;;11.20;;
14074;SDS011;12831;52.392;13.066;2024-03-22T06:57:42;17.83;;;12.07;;
14074;SDS011;12831;52.392;13.066;2024-03-22T07:00:08;18.85;;;11.15;;
14074;SDS011;12831;52.392;13.066;2024-03-22T07:02:36;16.90;;;11.52;;
14074;SDS011;12831;52.392;13.066;2024-03-22T07:05:06;22.90;;;13.60;;
14074;SDS011;12831;52.392;13.066;2024-03-22T07:07:37;20.58;;;13.18;;
14074;SDS011;12831;52.392;13.066;2024-03-22T07:10:05;18.63;;;11.57;;
14074;SDS011;12831;52.392;13.066;2024-03-22T07:12:32;17.08;;;11.30;;
14074;SDS011;12831;52.392;13.066;2024-03-22T07:14:59;22.25;;;13.93;;
14074;SDS011;12831;52.392;13.066;2024-03-22T07:17:27;18.02;;;11.38;;
14074;SDS011;12831;52.392;13.066;2024-03-22T07:19:54;20.95;;;12.48;;
14074;SDS011;12831;52.392;13.066;2024-03-22T07:22:37;18.33;;;12.73;;
14074;SDS011;12831;52.392;13.066;2024-03-22T07:25:04;19.13;;;12.55;;
14074;SDS011;12831;52.392;13.066;2024-03-22T07:27:31;18.75;;;12.05;;
14074;SDS011;12831;52.392;13.066;2024-03-22T07:29:58;21.77;;;13.80;;
14074;SDS011;12831;52.392;13.066;2024-03-22T07:32:26;18.98;;;13.45;;
14074;SDS011;12831;52.392;13.066;2024-03-22T07:34:55;21.67;;;13.30;;
14074;SDS011;12831;52.392;13.066;2024-03-22T07:37:22;18.92;;;12.95;;
14074;SDS011;12831;52.392;13.066;2024-03-22T07:39:49;20.35;;;13.55;;
14074;SDS011;12831;52.392;13.066;2024-03-22T07:42:16;21.10;;;14.15;;
14074;SDS011;12831;52.392;13.066;2024-03-22T07:44:42;21.15;;;12.77;;
14074;SDS011;12831;52.392;13.066;2024-03-22T07:47:09;20.00;;;13.63;;
14074;SDS011;12831;52.392;13.066;2024-03-22T07:49:36;22.33;;;13.25;;
14074;SDS011;12831;52.392;13.066;2024-03-22T07:52:03;19.02;;;13.55;;
14074;SDS011;12831;52.392;13.066;2024-03-22T07:54:31;19.92;;;12.85;;
14074;SDS011;12831;52.392;13.066;2024-03-22T07:56:57;19.77;;;13.40;;
14074;SDS011;12831;52.392;13.066;2024-03-22T07:59:34;20.27;;;12.20;;
14074;SDS011;12831;52.392;13.066;2024-03-22T08:02:01;21.85;;;13.30;;
14074;SDS011;12831;52.392;13.066;2024-03-22T08:04:27;18.67;;;12.93;;
14074;SDS011;12831;52.392;13.066;2024-03-22T08:06:56;20.42;;;12.73;;
14074;SDS011;12831;52.392;13.066;2024-03-22T08:12:04;18.83;;;13.07;;
14074;SDS011;12831;52.392;13.066;2024-03-22T08:14:51;17.55;;;12.20;;
14074;SDS011;12831;52.392;13.066;2024-03-22T08:17:27;19.38;;;12.65;;
14074;SDS011;12831;52.392;13.066;2024-03-22T08:19:56;19.85;;;13.43;;
14074;SDS011;12831;52.392;13.066;2024-03-22T08:22:35;19.30;;;13.52;;
14074;SDS011;12831;52.392;13.066;2024-03-22T08:25:04;20.67;;;13.07;;
14074;SDS011;12831;52.392;13.066;2024-03-22T08:27:34;20.48;;;13.98;;
14074;SDS011;12831;52.392;13.066;2024-03-22T08:30:21;24.88;;;14.93;;
14074;SDS011;12831;52.392;13.066;2024-03-22T08:33:03;16.30;;;12.23;;
14074;SDS011;12831;52.392;13.066;2024-03-22T08:35:47;17.77;;;12.23;;
14074;SDS011;12831;52.392;13.066;2024-03-22T08:38:28;21.30;;;12.45;;
14074;SDS011;12831;52.392;13.066;2024-03-22T08:40:54;20.65;;;12.57;;
14074;SDS011;12831;52.392;13.066;2024-03-22T08:43:21;18.38;;;12.65;;
14074;SDS011;12831;52.392;13.066;2024-03-22T08:45:48;18.70;;;12.95;;
14074;SDS011;12831;52.392;13.066;2024-03-22T08:48:14;21.50;;;11.63;;
14074;SDS011;12831;52.392;13.066;2024-03-22T08:50:46;17.60;;;12.15;;
14074;SDS011;12831;52.392;13.066;2024-03-22T08:56:07;20.25;;;12.05;;
14074;SDS011;12831;52.392;13.066;2024-03-22T08:58:33;19.15;;;12.57;;
14074;SDS011;12831;52.392;13.066;2024-03-22T09:01:00;20.27;;;13.02;;
14074;SDS011;12831;52.392;13.066;2024-03-22T09:03:26;19.02;;;12.23;;
14074;SDS011;12831;52.392;13.066;2024-03-22T09:05:52;19.42;;;12.25;;
14074;SDS011;12831;52.392;13.066;2024-03-22T09:08:21;17.00;;;12.23;;
14074;SDS011;12831;52.392;13.066;2024-03-22T09:10:48;18.10;;;11.07;;
14074;SDS011;12831;52.392;13.066;2024-03-22T09:13:14;18.13;;;11.90;;
14074;SDS011;12831;52.392;13.066;2024-03-22T09:15:41;17.52;;;11.63;;
14074;SDS011;12831;52.392;13.066;2024-03-22T09:18:08;20.00;;;12.25;;
14074;SDS011;12831;52.392;13.066;2024-03-22T09:20:34;15.85;;;11.05;;
14074;SDS011;12831;52.392;13.066;2024-03-22T09:23:22;16.10;;;11.80;;
14074;SDS011;12831;52.392;13.066;2024-03-22T09:25:51;18.58;;;11.85;;
14074;SDS011;12831;52.392;13.066;2024-03-22T09:28:17;17.33;;;11.27;;
14074;SDS011;12831;52.392;13.066;2024-03-22T09:30:44;15.82;;;10.15;;
14074;SDS011;12831;52.392;13.066;2024-03-22T09:33:23;17.70;;;11.43;;
14074;SDS011;12831;52.392;13.066;2024-03-22T09:35:49;15.63;;;10.27;;
14074;SDS011;12831;52.392;13.066;2024-03-22T09:38:15;15.40;;;10.70;;
14074;SDS011;12831;52.392;13.066;2024-03-22T09:40:41;16.90;;;10.57;;
14074;SDS011;12831;52.392;13.066;2024-03-22T09:43:08;15.73;;;10.10;;
14074;SDS011;12831;52.392;13.066;2024-03-22T09:45:36;15.80;;;10.73;;
14074;SDS011;12831;52.392;13.066;2024-03-22T09:48:03;14.75;;;10.20;;
14074;SDS011;12831;52.392;13.066;2024-03-22T09:50:30;17.33;;;10.85;;
14074;SDS011;12831;52.392;13.066;2024-03-22T09:52:56;21.17;;;11.35;;
14074;SDS011;12831;52.392;13.066;2024-03-22T09:55:23;14.82;;;10.30;;
14074;SDS011;12831;52.392;13.066;2024-03-22T09:57:54;19.80;;;10.00;;
14074;SDS011;12831;52.392;13.066;2024-03-22T10:00:26;15.07;;;9.65;;
14074;SDS011;12831;52.392;13.066;2024-03-22T10:02:55;19.35;;;11.40;;
14074;SDS011;12831;52.392;13.066;2024-03-22T10:05:29;13.48;;;9.77;;
14074;SDS011;12831;52.392;13.066;2024-03-22T10:16:23;12.63;;;9.65;;
14074;SDS011;12831;52.392;13.066;2024-03-22T10:18:57;15.95;;;10.82;;
14074;SDS011;12831;52.392;13.066;2024-03-22T10:21:47;14.68;;;9.63;;
14074;SDS011;12831;52.392;13.066;2024-03-22T10:24:30;15.00;;;9.93;;
14074;SDS011;12831;52.392;13.066;2024-03-22T10:27:14;14.45;;;9.43;;
14074;SDS011;12831;52.392;13.066;2024-03-22T10:32:32;14.18;;;9.50;;
14074;SDS011;12831;52.392;13.066;2024-03-22T10:34:59;15.80;;;9.07;;
14074;SDS011;12831;52.392;13.066;2024-03-22T10:37:40;13.02;;;9.13;;
14074;SDS011;12831;52.392;13.066;2024-03-22T10:40:16;13.07;;;9.10;;
14074;SDS011;12831;52.392;13.066;2024-03-22T10:42:58;13.60;;;9.13;;
14074;SDS011;12831;52.392;13.066;2024-03-22T10:45:27;14.07;;;9.13;;
14074;SDS011;12831;52.392;13.066;2024-03-22T10:48:10;14.70;;;9.23;;
14074;SDS011;12831;52.392;13.066;2024-03-22T10:50:40;16.77;;;9.10;;
14074;SDS011;12831;52.392;13.066;2024-03-22T10:53:19;13.15;;;8.90;;
14074;SDS011;12831;52.392;13.066;2024-03-22T10:56:14;17.80;;;9.85;;
14074;SDS011;12831;52.392;13.066;2024-03-22T10:58:42;16.13;;;9.48;;
14074;SDS011;12831;52.392;13.066;2024-03-22T11:04:19;13.68;;;9.63;;
14074;SDS011;12831;52.392;13.066;2024-03-22T11:06:56;14.75;;;9.60;;
14074;SDS011;12831;52.392;13.066;2024-03-22T11:09:25;14.07;;;9.65;;
14074;SDS011;12831;52.392;13.066;2024-03-22T11:14:28;12.98;;;9.05;;
14074;SDS011;12831;52.392;13.066;2024-03-22T11:17:01;16.55;;;10.40;;
14074;SDS011;12831;52.392;13.066;2024-03-22T11:19:40;14.30;;;9.98;;
14074;SDS011;12831;52.392;13.066;2024-03-22T11:22:12;17.25;;;9.85;;
14074;SDS011;12831;52.392;13.066;2024-03-22T11:24:55;14.40;;;9.70;;
14074;SDS011;12831;52.392;13.066;2024-03-22T11:27:23;16.83;;;10.75;;
14074;SDS011;12831;52.392;13.066;2024-03-22T11:29:51;14.23;;;10.13;;
14074;SDS011;12831;52.392;13.066;2024-03-22T11:32:39;16.67;;;10.98;;
14074;SDS011;12831;52.392;13.066;2024-03-22T12:01:12;17.52;;;12.07;;
14074;SDS011;12831;52.392;13.066;2024-03-22T12:04:06;19.77;;;12.98;;
14074;SDS011;12831;52.392;13.066;2024-03-22T12:06:42;22.00;;;12.90;;
14074;SDS011;12831;52.392;13.066;2024-03-22T12:09:09;19.88;;;12.60;;
14074;SDS011;12831;52.392;13.066;2024-03-22T12:11:41;18.65;;;11.57;;
14074;SDS011;12831;52.392;13.066;2024-03-22T12:14:13;18.08;;;12.27;;
14074;SDS011;12831;52.392;13.066;2024-03-22T12:16:41;18.33;;;13.15;;
14074;SDS011;12831;52.392;13.066;2024-03-22T12:19:26;23.10;;;13.50;;
14074;SDS011;12831;52.392;13.066;2024-03-22T12:22:33;24.27;;;13.07;;
14074;SDS011;12831;52.392;13.066;2024-03-22T12:25:09;19.20;;;11.52;;
14074;SDS011;12831;52.392;13.066;2024-03-22T12:27:52;21.40;;;13.60;;
14074;SDS011;12831;52.392;13.066;2024-03-22T12:30:19;22.23;;;12.75;;
14074;SDS011;12831;52.392;13.066;2024-03-22T12:32:53;20.58;;;12.07;;
14074;SDS011;12831;52.392;13.066;2024-03-22T12:35:19;17.63;;;11.70;;
14074;SDS011;12831;52.392;13.066;2024-03-22T12:37:46;23.58;;;12.40;;
14074;SDS011;12831;52.392;13.066;2024-03-22T12:40:13;22.40;;;13.48;;
14074;SDS011;12831;52.392;13.066;2024-03-22T12:42:41;21.38;;;13.90;;
14074;SDS011;12831;52.392;13.066;2024-03-22T12:45:08;21.65;;;12.45;;
14074;SDS011;12831;52.392;13.066;2024-03-22T12:47:36;23.52;;;12.77;;
14074;SDS011;12831;52.392;13.066;2024-03-22T12:50:05;26.23;;;14.73;;
14074;SDS011;12831;52.392;13.066;2024-03-22T12:52:41;23.75;;;12.70;;
14074;SDS011;12831;52.392;13.066;2024-03-22T12:55:11;16.13;;;9.50;;
14074;SDS011;12831;52.392;13.066;2024-03-22T12:57:37;13.27;;;8.27;;
14074;SDS011;12831;52.392;13.066;2024-03-22T13:00:05;14.55;;;7.85;;
14074;SDS011;12831;52.392;13.066;2024-03-22T13:02:39;14.18;;;8.43;;
14074;SDS011;12831;52.392;13.066;2024-03-22T13:05:09;13.02;;;8.15;;
14074;SDS011;12831;52.392;13.066;2024-03-22T13:07:35;13.02;;;7.72;;
14074;SDS011;12831;52.392;13.066;2024-03-22T13:10:09;12.30;;;7.75;;
14074;SDS011;12831;52.392;13.066;2024-03-22T13:12:36;13.23;;;7.60;;
14074;SDS011;12831;52.392;13.066;2024-03-22T13:15:03;15.57;;;8.88;;
14074;SDS011;12831;52.392;13.066;2024-03-22T13:17:42;15.60;;;9.35;;
14074;SDS011;12831;52.392;13.066;2024-03-22T13:20:10;15.65;;;9.18;;
14074;SDS011;12831;52.392;13.066;2024-03-22T13:26:04;19.08;;;11.75;;
14074;SDS011;12831;52.392;13.066;2024-03-22T13:28:33;20.10;;;12.52;;
14074;SDS011;12831;52.392;13.066;2024-03-22T13:31:02;20.48;;;12.30;;
14074;SDS011;12831;52.392;13.066;2024-03-22T13:33:29;17.67;;;11.95;;
14074;SDS011;12831;52.392;13.066;2024-03-22T13:35:59;21.35;;;11.77;;
14074;SDS011;12831;52.392;13.066;2024-03-22T13:38:26;19.50;;;11.68;;
14074;SDS011;12831;52.392;13.066;2024-03-22T13:40:57;20.50;;;13.23;;
14074;SDS011;12831;52.392;13.066;2024-03-22T13:43:32;23.73;;;12.73;;
14074;SDS011;12831;52.392;13.066;2024-03-22T13:46:00;21.67;;;12.60;;
14074;SDS011;12831;52.392;13.066;2024-03-22T13:48:27;27.88;;;18.42;;
14074;SDS011;12831;52.392;13.066;2024-03-22T13:50:57;27.20;;;13.90;;
14074;SDS011;12831;52.392;13.066;2024-03-22T13:53:27;24.88;;;14.68;;
14074;SDS011;12831;52.392;13.066;2024-03-22T13:55:54;21.95;;;13.73;;
14074;SDS011;12831;52.392;13.066;2024-03-22T13:58:26;23.13;;;15.02;;
14074;SDS011;12831;52.392;13.066;2024-03-22T14:01:02;23.60;;;13.30;;
14074;SDS011;12831;52.392;13.066;2024-03-22T14:03:30;24.80;;;14.18;;
14074;SDS011;12831;52.392;13.066;2024-03-22T14:05:59;22.80;;;13.63;;
14074;SDS011;12831;52.392;13.066;2024-03-22T14:08:26;28.38;;;16.27;;
14074;SDS011;12831;52.392;13.066;2024-03-22T14:10:54;22.17;;;12.70;;
14074;SDS011;12831;52.392;13.066;2024-03-22T14:13:23;23.25;;;14.02;;
14074;SDS011;12831;52.392;13.066;2024-03-22T14:15:51;21.95;;;13.82;;
14074;SDS011;12831;52.392;13.066;2024-03-22T14:18:22;23.95;;;14.27;;
14074;SDS011;12831;52.392;13.066;2024-03-22T14:20:50;25.55;;;15.60;;
14074;SDS011;12831;52.392;13.066;2024-03-22T14:23:19;23.85;;;14.43;;
14074;SDS011;12831;52.392;13.066;2024-03-22T14:25:49;29.15;;;16.50;;
14074;SDS011;12831;52.392;13.066;2024-03-22T14:28:18;27.90;;;15.63;;
14074;SDS011;12831;52.392;13.066;2024-03-22T14:30:48;26.55;;;15.50;;
14074;SDS011;12831;52.392;13.066;2024-03-22T14:33:17;21.17;;;13.38;;
14074;SDS011;12831;52.392;13.066;2024-03-22T14:35:47;28.77;;;16.38;;
14074;SDS011;12831;52.392;13.066;2024-03-22T14:38:17;32.42;;;17.45;;
14074;SDS011;12831;52.392;13.066;2024-03-22T14:40:48;25.17;;;14.70;;
14074;SDS011;12831;52.392;13.066;2024-03-22T14:43:17;29.83;;;16.90;;
14074;SDS011;12831;52.392;13.066;2024-03-22T14:45:44;29.85;;;15.63;;
14074;SDS011;12831;52.392;13.066;2024-03-22T14:48:12;26.48;;;15.48;;
14074;SDS011;12831;52.392;13.066;2024-03-22T14:50:45;30.23;;;16.67;;
14074;SDS011;12831;52.392;13.066;2024-03-22T14:53:18;30.20;;;16.67;;
14074;SDS011;12831;52.392;13.066;2024-03-22T14:55:55;28.40;;;16.80;;
14074;SDS011;12831;52.392;13.066;2024-03-22T14:58:27;30.48;;;16.38;;
14074;SDS011;12831;52.392;13.066;2024-03-22T15:00:54;31.52;;;17.35;;
14074;SDS011;12831;52.392;13.066;2024-03-22T15:03:22;31.85;;;19.60;;
14074;SDS011;12831;52.392;13.066;2024-03-22T15:05:55;30.85;;;19.73;;
14074;SDS011;12831;52.392;13.066;2024-03-22T15:08:22;29.77;;;18.55;;
14074;SDS011;12831;52.392;13.066;2024-03-22T15:10:49;28.98;;;17.60;;
14074;SDS011;12831;52.392;13.066;2024-03-22T15:13:31;29.98;;;18.08;;
14074;SDS011;12831;52.392;13.066;2024-03-22T15:15:58;30.17;;;17.40;;
14074;SDS011;12831;52.392;13.066;2024-03-22T15:18:26;27.85;;;17.38;;
14074;SDS011;12831;52.392;13.066;2024-03-22T15:20:53;26.55;;;16.48;;